sensor_id;sensor_type;location;lat;lon;timestamp;P1;durP1;ratioP1;P2;durP2;ratioP2
43363;SDS011;40636;52.424;-1.948;2023-07-31T00:01:35;3.42;;;1.40;;
43363;SDS011;40636;52.424;-1.948;2023-07-31T00:04:02;4.15;;;1.45;;
43363;SDS011;40636;52.424;-1.948;2023-07-31T00:06:29;1.77;;;1.35;;
43363;SDS011;40636;52.424;-1.948;2023-07-31T00:08:56;3.63;;;1.30;;
43363;SDS011;40636;52.424;-1.948;2023-07-31T00:11:24;2.90;;;1.20;;
43363;SDS011;40636;52.424;-1.948;2023-07-31T00:13:52;5.35;;;1.58;;
43363;SDS011;40636;52.424;-1.948;2023-07-31T00:16:19;2.58;;;1.38;;
43363;SDS011;40636;52.424;-1.948;2023-07-31T00:18:46;3.63;;;1.67;;
43363;SDS011;40636;52.424;-1.948;2023-07-31T00:21:13;4.93;;;1.70;;
43363;SDS011;40636;52.424;-1.948;2023-07-31T00:23:40;2.30;;;1.33;;
43363;SDS011;40636;52.424;-1.948;2023-07-31T00:26:06;3.03;;;1.23;;
43363;SDS011;40636;52.424;-1.948;2023-07-31T00:28:33;2.35;;;1.50;;
43363;SDS011;40636;52.424;-1.948;2023-07-31T00:31:00;5.53;;;2.70;;
43363;SDS011;40636;52.424;-1.948;2023-07-31T00:33:28;1.63;;;0.95;;
43363;SDS011;40636;52.424;-1.948;2023-07-31T00:35:54;2.67;;;1.27;;
43363;SDS011;40636;52.424;-1.948;2023-07-31T00:38:21;2.65;;;1.45;;
43363;SDS011;40636;52.424;-1.948;2023-07-31T00:40:48;3.38;;;1.52;;
43363;SDS011;40636;52.424;-1.948;2023-07-31T00:43:14;1.70;;;1.27;;
43363;SDS011;40636;52.424;-1.948;2023-07-31T00:45:41;7.22;;;1.33;;
43363;SDS011;40636;52.424;-1.948;2023-07-31T00:48:08;2.17;;;1.35;;
43363;SDS011;40636;52.424;-1.948;2023-07-31T00:50:35;4.25;;;1.58;;
43363;SDS011;40636;52.424;-1.948;2023-07-31T00:53:02;2.25;;;1.20;;
43363;SDS011;40636;52.424;-1.948;2023-07-31T00:55:29;2.38;;;1.40;;
43363;SDS011;40636;52.424;-1.948;2023-07-31T00:57:56;2.30;;;1.23;;
43363;SDS011;40636;52.424;-1.948;2023-07-31T01:00:23;3.05;;;1.10;;
43363;SDS011;40636;52.424;-1.948;2023-07-31T01:02:50;4.28;;;1.55;;
43363;SDS011;40636;52.424;-1.948;2023-07-31T01:05:24;2.53;;;1.48;;
43363;SDS011;40636;52.424;-1.948;2023-07-31T01:11:15;3.90;;;1.15;;
43363;SDS011;40636;52.424;-1.948;2023-07-31T01:13:46;1.52;;;1.10;;
43363;SDS011;40636;52.424;-1.948;2023-07-31T01:16:13;1.73;;;1.52;;
43363;SDS011;40636;52.424;-1.948;2023-07-31T01:18:40;2.47;;;1.02;;
43363;SDS011;40636;52.424;-1.948;2023-07-31T01:21:12;3.28;;;1.38;;
43363;SDS011;40636;52.424;-1.948;2023-07-31T01:26:43;1.48;;;1.00;;
43363;SDS011;40636;52.424;-1.948;2023-07-31T01:29:17;1.00;;;0.93;;
43363;SDS011;40636;52.424;-1.948;2023-07-31T01:31:51;3.05;;;1.42;;
43363;SDS011;40636;52.424;-1.948;2023-07-31T01:34:21;1.08;;;0.82;;
43363;SDS011;40636;52.424;-1.948;2023-07-31T01:36:48;1.38;;;0.88;;
43363;SDS011;40636;52.424;-1.948;2023-07-31T01:39:15;1.35;;;0.90;;
43363;SDS011;40636;52.424;-1.948;2023-07-31T01:41:42;3.83;;;0.85;;
43363;SDS011;40636;52.424;-1.948;2023-07-31T01:44:09;1.95;;;0.68;;
43363;SDS011;40636;52.424;-1.948;2023-07-31T01:46:35;2.58;;;0.90;;
43363;SDS011;40636;52.424;-1.948;2023-07-31T01:49:03;1.15;;;0.85;;
43363;SDS011;40636;52.424;-1.948;2023-07-31T01:51:31;0.90;;;0.80;;
43363;SDS011;40636;52.424;-1.948;2023-07-31T01:54:01;0.70;;;0.60;;
43363;SDS011;40636;52.424;-1.948;2023-07-31T01:56:28;0.75;;;0.63;;
43363;SDS011;40636;52.424;-1.948;2023-07-31T01:58:55;0.60;;;0.60;;
43363;SDS011;40636;52.424;-1.948;2023-07-31T02:01:22;1.15;;;0.73;;
43363;SDS011;40636;52.424;-1.948;2023-07-31T02:03:49;1.08;;;0.98;;
43363;SDS011;40636;52.424;-1.948;2023-07-31T02:06:16;1.50;;;0.80;;
43363;SDS011;40636;52.424;-1.948;2023-07-31T02:08:43;0.63;;;0.60;;
43363;SDS011;40636;52.424;-1.948;2023-07-31T02:11:10;1.02;;;0.60;;
43363;SDS011;40636;52.424;-1.948;2023-07-31T02:13:36;0.40;;;0.40;;
43363;SDS011;40636;52.424;-1.948;2023-07-31T02:16:03;0.60;;;0.60;;
43363;SDS011;40636;52.424;-1.948;2023-07-31T02:18:30;2.05;;;0.90;;
43363;SDS011;40636;52.424;-1.948;2023-07-31T02:20:57;1.38;;;0.80;;
43363;SDS011;40636;52.424;-1.948;2023-07-31T02:23:23;1.50;;;0.75;;
43363;SDS011;40636;52.424;-1.948;2023-07-31T02:25:50;1.25;;;0.63;;
43363;SDS011;40636;52.424;-1.948;2023-07-31T02:28:17;1.50;;;0.70;;
43363;SDS011;40636;52.424;-1.948;2023-07-31T02:30:44;0.70;;;0.70;;
43363;SDS011;40636;52.424;-1.948;2023-07-31T02:33:14;1.02;;;0.70;;
43363;SDS011;40636;52.424;-1.948;2023-07-31T02:35:42;1.10;;;1.00;;
43363;SDS011;40636;52.424;-1.948;2023-07-31T02:38:09;1.10;;;0.65;;
43363;SDS011;40636;52.424;-1.948;2023-07-31T02:40:36;0.50;;;0.50;;
43363;SDS011;40636;52.424;-1.948;2023-07-31T02:43:02;2.88;;;0.75;;
43363;SDS011;40636;52.424;-1.948;2023-07-31T02:45:29;1.13;;;0.68;;
43363;SDS011;40636;52.424;-1.948;2023-07-31T02:47:56;0.40;;;0.40;;
43363;SDS011;40636;52.424;-1.948;2023-07-31T02:50:23;0.52;;;0.52;;
43363;SDS011;40636;52.424;-1.948;2023-07-31T02:52:49;1.85;;;0.57;;
43363;SDS011;40636;52.424;-1.948;2023-07-31T02:55:16;0.50;;;0.50;;
43363;SDS011;40636;52.424;-1.948;2023-07-31T02:57:43;1.48;;;0.77;;
43363;SDS011;40636;52.424;-1.948;2023-07-31T03:00:09;1.90;;;0.60;;
43363;SDS011;40636;52.424;-1.948;2023-07-31T03:02:36;0.95;;;0.50;;
43363;SDS011;40636;52.424;-1.948;2023-07-31T03:05:03;1.92;;;0.65;;
43363;SDS011;40636;52.424;-1.948;2023-07-31T03:07:30;3.20;;;0.73;;
43363;SDS011;40636;52.424;-1.948;2023-07-31T03:09:57;0.35;;;0.35;;
43363;SDS011;40636;52.424;-1.948;2023-07-31T03:12:24;0.50;;;0.50;;
43363;SDS011;40636;52.424;-1.948;2023-07-31T03:14:50;0.70;;;0.50;;
43363;SDS011;40636;52.424;-1.948;2023-07-31T03:17:17;0.50;;;0.50;;
43363;SDS011;40636;52.424;-1.948;2023-07-31T03:19:44;0.45;;;0.40;;
43363;SDS011;40636;52.424;-1.948;2023-07-31T03:22:11;0.50;;;0.50;;
43363;SDS011;40636;52.424;-1.948;2023-07-31T03:24:37;1.05;;;0.60;;
43363;SDS011;40636;52.424;-1.948;2023-07-31T03:27:04;2.53;;;0.65;;
43363;SDS011;40636;52.424;-1.948;2023-07-31T03:29:31;1.33;;;0.68;;
43363;SDS011;40636;52.424;-1.948;2023-07-31T03:31:58;0.43;;;0.43;;
43363;SDS011;40636;52.424;-1.948;2023-07-31T03:34:25;0.70;;;0.70;;
43363;SDS011;40636;52.424;-1.948;2023-07-31T03:36:52;0.90;;;0.75;;
43363;SDS011;40636;52.424;-1.948;2023-07-31T03:39:19;2.65;;;0.65;;
43363;SDS011;40636;52.424;-1.948;2023-07-31T03:41:45;2.10;;;0.70;;
43363;SDS011;40636;52.424;-1.948;2023-07-31T03:44:12;0.90;;;0.90;;
43363;SDS011;40636;52.424;-1.948;2023-07-31T03:46:39;2.20;;;1.25;;
43363;SDS011;40636;52.424;-1.948;2023-07-31T03:49:06;1.52;;;0.80;;
43363;SDS011;40636;52.424;-1.948;2023-07-31T03:51:33;1.50;;;0.73;;
43363;SDS011;40636;52.424;-1.948;2023-07-31T03:54:00;0.82;;;0.80;;
43363;SDS011;40636;52.424;-1.948;2023-07-31T03:56:27;1.20;;;0.65;;
43363;SDS011;40636;52.424;-1.948;2023-07-31T03:58:53;1.42;;;0.90;;
43363;SDS011;40636;52.424;-1.948;2023-07-31T04:01:20;2.22;;;0.93;;
43363;SDS011;40636;52.424;-1.948;2023-07-31T04:03:47;2.97;;;0.90;;
43363;SDS011;40636;52.424;-1.948;2023-07-31T04:06:14;0.90;;;0.85;;
43363;SDS011;40636;52.424;-1.948;2023-07-31T04:08:44;3.95;;;1.10;;
43363;SDS011;40636;52.424;-1.948;2023-07-31T04:11:14;1.38;;;0.80;;
43363;SDS011;40636;52.424;-1.948;2023-07-31T04:13:40;2.75;;;0.80;;
43363;SDS011;40636;52.424;-1.948;2023-07-31T04:16:07;2.35;;;0.80;;
43363;SDS011;40636;52.424;-1.948;2023-07-31T04:18:34;3.05;;;1.20;;
43363;SDS011;40636;52.424;-1.948;2023-07-31T04:21:01;1.70;;;1.27;;
43363;SDS011;40636;52.424;-1.948;2023-07-31T04:23:28;2.15;;;1.10;;
43363;SDS011;40636;52.424;-1.948;2023-07-31T04:25:55;2.13;;;1.00;;
43363;SDS011;40636;52.424;-1.948;2023-07-31T04:28:22;3.40;;;1.10;;
43363;SDS011;40636;52.424;-1.948;2023-07-31T04:30:49;2.13;;;1.10;;
43363;SDS011;40636;52.424;-1.948;2023-07-31T04:33:16;2.97;;;1.42;;
43363;SDS011;40636;52.424;-1.948;2023-07-31T04:35:48;1.50;;;1.10;;
43363;SDS011;40636;52.424;-1.948;2023-07-31T04:38:19;2.55;;;1.50;;
43363;SDS011;40636;52.424;-1.948;2023-07-31T04:40:46;2.20;;;1.40;;
43363;SDS011;40636;52.424;-1.948;2023-07-31T04:43:13;2.17;;;1.50;;
43363;SDS011;40636;52.424;-1.948;2023-07-31T04:45:42;3.63;;;2.03;;
43363;SDS011;40636;52.424;-1.948;2023-07-31T04:48:11;3.35;;;1.98;;
43363;SDS011;40636;52.424;-1.948;2023-07-31T04:50:38;3.08;;;2.28;;
43363;SDS011;40636;52.424;-1.948;2023-07-31T04:53:05;3.60;;;2.15;;
43363;SDS011;40636;52.424;-1.948;2023-07-31T04:55:31;4.25;;;2.25;;
43363;SDS011;40636;52.424;-1.948;2023-07-31T04:57:59;3.97;;;2.55;;
43363;SDS011;40636;52.424;-1.948;2023-07-31T05:00:25;5.65;;;2.47;;
43363;SDS011;40636;52.424;-1.948;2023-07-31T05:02:52;5.53;;;2.35;;
43363;SDS011;40636;52.424;-1.948;2023-07-31T05:05:19;4.50;;;2.47;;
43363;SDS011;40636;52.424;-1.948;2023-07-31T05:07:46;6.80;;;2.92;;
43363;SDS011;40636;52.424;-1.948;2023-07-31T05:10:12;5.53;;;2.50;;
43363;SDS011;40636;52.424;-1.948;2023-07-31T05:12:39;4.95;;;2.67;;
43363;SDS011;40636;52.424;-1.948;2023-07-31T05:15:06;4.10;;;2.28;;
43363;SDS011;40636;52.424;-1.948;2023-07-31T05:17:33;5.68;;;2.78;;
43363;SDS011;40636;52.424;-1.948;2023-07-31T05:20:00;7.00;;;2.95;;
43363;SDS011;40636;52.424;-1.948;2023-07-31T05:22:26;5.85;;;2.88;;
43363;SDS011;40636;52.424;-1.948;2023-07-31T05:24:53;5.60;;;2.95;;
43363;SDS011;40636;52.424;-1.948;2023-07-31T05:27:20;7.18;;;3.83;;
43363;SDS011;40636;52.424;-1.948;2023-07-31T05:29:47;4.82;;;2.50;;
43363;SDS011;40636;52.424;-1.948;2023-07-31T05:32:14;4.18;;;2.42;;
43363;SDS011;40636;52.424;-1.948;2023-07-31T05:34:40;13.15;;;4.45;;
43363;SDS011;40636;52.424;-1.948;2023-07-31T05:37:07;11.85;;;2.60;;
43363;SDS011;40636;52.424;-1.948;2023-07-31T05:39:36;5.82;;;2.40;;
43363;SDS011;40636;52.424;-1.948;2023-07-31T05:42:03;4.47;;;2.53;;
43363;SDS011;40636;52.424;-1.948;2023-07-31T05:44:29;4.72;;;2.60;;
43363;SDS011;40636;52.424;-1.948;2023-07-31T05:46:56;5.32;;;2.92;;
43363;SDS011;40636;52.424;-1.948;2023-07-31T05:49:23;5.65;;;2.20;;
43363;SDS011;40636;52.424;-1.948;2023-07-31T05:51:49;5.78;;;2.58;;
43363;SDS011;40636;52.424;-1.948;2023-07-31T05:54:16;4.00;;;1.98;;
43363;SDS011;40636;52.424;-1.948;2023-07-31T05:56:43;4.72;;;2.20;;
43363;SDS011;40636;52.424;-1.948;2023-07-31T05:59:11;3.63;;;1.95;;
43363;SDS011;40636;52.424;-1.948;2023-07-31T06:01:39;4.20;;;1.70;;
43363;SDS011;40636;52.424;-1.948;2023-07-31T06:04:06;2.88;;;1.67;;
43363;SDS011;40636;52.424;-1.948;2023-07-31T06:06:33;4.68;;;2.30;;
43363;SDS011;40636;52.424;-1.948;2023-07-31T06:09:00;4.22;;;1.77;;
43363;SDS011;40636;52.424;-1.948;2023-07-31T06:11:27;1.98;;;1.58;;
43363;SDS011;40636;52.424;-1.948;2023-07-31T06:13:53;3.28;;;1.60;;
43363;SDS011;40636;52.424;-1.948;2023-07-31T06:16:20;2.65;;;1.80;;
43363;SDS011;40636;52.424;-1.948;2023-07-31T06:18:48;2.40;;;1.27;;
43363;SDS011;40636;52.424;-1.948;2023-07-31T06:21:14;3.40;;;1.92;;
43363;SDS011;40636;52.424;-1.948;2023-07-31T06:23:41;3.65;;;1.45;;
43363;SDS011;40636;52.424;-1.948;2023-07-31T06:26:08;2.78;;;1.13;;
43363;SDS011;40636;52.424;-1.948;2023-07-31T06:28:34;1.73;;;1.40;;
43363;SDS011;40636;52.424;-1.948;2023-07-31T06:31:01;2.55;;;1.30;;
43363;SDS011;40636;52.424;-1.948;2023-07-31T06:33:28;2.65;;;1.15;;
43363;SDS011;40636;52.424;-1.948;2023-07-31T06:35:55;1.65;;;0.98;;
43363;SDS011;40636;52.424;-1.948;2023-07-31T06:38:23;3.47;;;1.27;;
43363;SDS011;40636;52.424;-1.948;2023-07-31T06:40:52;1.70;;;1.23;;
43363;SDS011;40636;52.424;-1.948;2023-07-31T06:43:19;3.28;;;1.10;;
43363;SDS011;40636;52.424;-1.948;2023-07-31T06:45:46;2.67;;;0.90;;
43363;SDS011;40636;52.424;-1.948;2023-07-31T06:48:16;1.75;;;1.05;;
43363;SDS011;40636;52.424;-1.948;2023-07-31T06:50:43;2.90;;;1.40;;
43363;SDS011;40636;52.424;-1.948;2023-07-31T06:53:10;2.53;;;1.35;;
43363;SDS011;40636;52.424;-1.948;2023-07-31T06:55:37;1.95;;;1.42;;
43363;SDS011;40636;52.424;-1.948;2023-07-31T06:58:03;2.90;;;0.90;;
43363;SDS011;40636;52.424;-1.948;2023-07-31T07:00:30;0.93;;;0.80;;
43363;SDS011;40636;52.424;-1.948;2023-07-31T07:02:57;0.80;;;0.80;;
43363;SDS011;40636;52.424;-1.948;2023-07-31T07:05:24;2.65;;;0.93;;
43363;SDS011;40636;52.424;-1.948;2023-07-31T07:07:51;0.95;;;0.60;;
43363;SDS011;40636;52.424;-1.948;2023-07-31T07:10:18;1.00;;;0.82;;
43363;SDS011;40636;52.424;-1.948;2023-07-31T07:12:45;2.63;;;0.90;;
43363;SDS011;40636;52.424;-1.948;2023-07-31T07:15:12;0.90;;;0.47;;
43363;SDS011;40636;52.424;-1.948;2023-07-31T07:17:38;1.35;;;0.77;;
43363;SDS011;40636;52.424;-1.948;2023-07-31T07:20:06;2.03;;;0.57;;
43363;SDS011;40636;52.424;-1.948;2023-07-31T07:22:34;1.13;;;0.70;;
43363;SDS011;40636;52.424;-1.948;2023-07-31T07:25:01;2.75;;;0.77;;
43363;SDS011;40636;52.424;-1.948;2023-07-31T07:27:28;3.03;;;0.75;;
43363;SDS011;40636;52.424;-1.948;2023-07-31T07:29:55;0.80;;;0.60;;
43363;SDS011;40636;52.424;-1.948;2023-07-31T07:32:22;3.42;;;0.80;;
43363;SDS011;40636;52.424;-1.948;2023-07-31T07:34:49;1.55;;;0.80;;
43363;SDS011;40636;52.424;-1.948;2023-07-31T07:37:16;1.13;;;0.98;;
43363;SDS011;40636;52.424;-1.948;2023-07-31T07:39:43;2.88;;;0.82;;
43363;SDS011;40636;52.424;-1.948;2023-07-31T07:42:10;1.15;;;0.75;;
43363;SDS011;40636;52.424;-1.948;2023-07-31T07:44:36;2.70;;;1.15;;
43363;SDS011;40636;52.424;-1.948;2023-07-31T07:47:03;2.47;;;0.80;;
43363;SDS011;40636;52.424;-1.948;2023-07-31T07:49:33;0.93;;;0.60;;
43363;SDS011;40636;52.424;-1.948;2023-07-31T07:52:01;1.13;;;0.80;;
43363;SDS011;40636;52.424;-1.948;2023-07-31T07:54:28;3.17;;;2.03;;
43363;SDS011;40636;52.424;-1.948;2023-07-31T07:56:55;1.65;;;1.08;;
43363;SDS011;40636;52.424;-1.948;2023-07-31T07:59:22;1.92;;;0.93;;
43363;SDS011;40636;52.424;-1.948;2023-07-31T08:01:49;1.00;;;0.80;;
43363;SDS011;40636;52.424;-1.948;2023-07-31T08:04:15;2.40;;;1.00;;
43363;SDS011;40636;52.424;-1.948;2023-07-31T08:06:42;1.98;;;0.73;;
43363;SDS011;40636;52.424;-1.948;2023-07-31T08:09:10;1.23;;;0.90;;
43363;SDS011;40636;52.424;-1.948;2023-07-31T08:11:49;1.92;;;0.55;;
43363;SDS011;40636;52.424;-1.948;2023-07-31T08:14:15;0.75;;;0.65;;
43363;SDS011;40636;52.424;-1.948;2023-07-31T08:16:42;1.92;;;0.82;;
43363;SDS011;40636;52.424;-1.948;2023-07-31T08:19:09;4.45;;;1.08;;
43363;SDS011;40636;52.424;-1.948;2023-07-31T08:21:38;0.77;;;0.77;;
43363;SDS011;40636;52.424;-1.948;2023-07-31T08:24:05;5.28;;;0.80;;
43363;SDS011;40636;52.424;-1.948;2023-07-31T08:26:32;0.98;;;0.60;;
43363;SDS011;40636;52.424;-1.948;2023-07-31T08:28:59;0.60;;;0.60;;
43363;SDS011;40636;52.424;-1.948;2023-07-31T08:31:25;1.15;;;0.60;;
43363;SDS011;40636;52.424;-1.948;2023-07-31T08:34:00;3.10;;;0.80;;
43363;SDS011;40636;52.424;-1.948;2023-07-31T08:36:27;0.82;;;0.60;;
43363;SDS011;40636;52.424;-1.948;2023-07-31T08:38:56;0.95;;;0.73;;
43363;SDS011;40636;52.424;-1.948;2023-07-31T08:41:22;0.55;;;0.52;;
43363;SDS011;40636;52.424;-1.948;2023-07-31T08:43:49;0.63;;;0.50;;
43363;SDS011;40636;52.424;-1.948;2023-07-31T08:46:17;1.25;;;0.70;;
43363;SDS011;40636;52.424;-1.948;2023-07-31T08:48:46;1.27;;;0.77;;
43363;SDS011;40636;52.424;-1.948;2023-07-31T08:51:18;0.85;;;0.50;;
43363;SDS011;40636;52.424;-1.948;2023-07-31T08:53:46;2.45;;;1.63;;
43363;SDS011;40636;52.424;-1.948;2023-07-31T08:56:13;2.63;;;0.80;;
43363;SDS011;40636;52.424;-1.948;2023-07-31T08:58:43;2.25;;;1.33;;
43363;SDS011;40636;52.424;-1.948;2023-07-31T09:01:11;6.05;;;1.55;;
43363;SDS011;40636;52.424;-1.948;2023-07-31T09:03:40;3.65;;;1.15;;
43363;SDS011;40636;52.424;-1.948;2023-07-31T09:06:12;2.17;;;1.38;;
43363;SDS011;40636;52.424;-1.948;2023-07-31T09:08:41;4.82;;;1.40;;
43363;SDS011;40636;52.424;-1.948;2023-07-31T09:11:09;3.60;;;1.40;;
43363;SDS011;40636;52.424;-1.948;2023-07-31T09:13:36;2.50;;;1.23;;
43363;SDS011;40636;52.424;-1.948;2023-07-31T09:16:05;2.78;;;1.63;;
43363;SDS011;40636;52.424;-1.948;2023-07-31T09:18:31;2.78;;;1.48;;
43363;SDS011;40636;52.424;-1.948;2023-07-31T09:21:05;5.90;;;1.77;;
43363;SDS011;40636;52.424;-1.948;2023-07-31T09:23:45;3.63;;;1.77;;
43363;SDS011;40636;52.424;-1.948;2023-07-31T09:28:57;4.63;;;1.50;;
43363;SDS011;40636;52.424;-1.948;2023-07-31T09:31:33;3.47;;;1.65;;
43363;SDS011;40636;52.424;-1.948;2023-07-31T09:34:09;3.40;;;1.40;;
43363;SDS011;40636;52.424;-1.948;2023-07-31T09:36:41;5.13;;;1.92;;
43363;SDS011;40636;52.424;-1.948;2023-07-31T09:39:10;7.43;;;1.95;;
43363;SDS011;40636;52.424;-1.948;2023-07-31T09:41:41;5.57;;;2.05;;
43363;SDS011;40636;52.424;-1.948;2023-07-31T09:44:10;4.03;;;1.80;;
43363;SDS011;40636;52.424;-1.948;2023-07-31T09:46:37;3.55;;;1.48;;
43363;SDS011;40636;52.424;-1.948;2023-07-31T09:51:39;3.60;;;1.35;;
43363;SDS011;40636;52.424;-1.948;2023-07-31T09:54:11;5.13;;;2.70;;
43363;SDS011;40636;52.424;-1.948;2023-07-31T09:56:43;2.67;;;1.73;;
43363;SDS011;40636;52.424;-1.948;2023-07-31T09:59:15;3.63;;;1.88;;
43363;SDS011;40636;52.424;-1.948;2023-07-31T10:01:47;4.22;;;1.70;;
43363;SDS011;40636;52.424;-1.948;2023-07-31T10:04:15;3.20;;;2.00;;
43363;SDS011;40636;52.424;-1.948;2023-07-31T10:06:47;5.90;;;2.00;;
43363;SDS011;40636;52.424;-1.948;2023-07-31T10:09:16;3.40;;;1.83;;
43363;SDS011;40636;52.424;-1.948;2023-07-31T10:11:51;6.10;;;2.47;;
43363;SDS011;40636;52.424;-1.948;2023-07-31T10:14:25;9.85;;;2.38;;
43363;SDS011;40636;52.424;-1.948;2023-07-31T10:16:52;7.43;;;2.47;;
43363;SDS011;40636;52.424;-1.948;2023-07-31T10:19:20;2.95;;;2.05;;
43363;SDS011;40636;52.424;-1.948;2023-07-31T10:21:48;5.68;;;2.38;;
43363;SDS011;40636;52.424;-1.948;2023-07-31T10:24:15;4.68;;;2.03;;
43363;SDS011;40636;52.424;-1.948;2023-07-31T10:26:43;3.53;;;2.15;;
43363;SDS011;40636;52.424;-1.948;2023-07-31T10:29:15;3.13;;;2.33;;
43363;SDS011;40636;52.424;-1.948;2023-07-31T10:31:45;6.80;;;2.22;;
43363;SDS011;40636;52.424;-1.948;2023-07-31T10:34:13;9.02;;;2.13;;
43363;SDS011;40636;52.424;-1.948;2023-07-31T10:36:40;4.68;;;2.53;;
43363;SDS011;40636;52.424;-1.948;2023-07-31T10:42:12;6.53;;;2.30;;
43363;SDS011;40636;52.424;-1.948;2023-07-31T10:44:49;4.25;;;2.42;;
43363;SDS011;40636;52.424;-1.948;2023-07-31T10:47:15;5.15;;;1.80;;
43363;SDS011;40636;52.424;-1.948;2023-07-31T10:49:46;4.50;;;2.05;;
43363;SDS011;40636;52.424;-1.948;2023-07-31T10:52:13;4.60;;;2.67;;
43363;SDS011;40636;52.424;-1.948;2023-07-31T10:57:47;5.88;;;2.03;;
43363;SDS011;40636;52.424;-1.948;2023-07-31T11:00:18;4.93;;;2.22;;
43363;SDS011;40636;52.424;-1.948;2023-07-31T11:08:26;7.53;;;2.40;;
43363;SDS011;40636;52.424;-1.948;2023-07-31T11:13:30;8.07;;;3.33;;
43363;SDS011;40636;52.424;-1.948;2023-07-31T11:16:05;4.57;;;1.92;;
43363;SDS011;40636;52.424;-1.948;2023-07-31T11:18:32;7.13;;;2.00;;
43363;SDS011;40636;52.424;-1.948;2023-07-31T11:20:59;4.25;;;1.88;;
43363;SDS011;40636;52.424;-1.948;2023-07-31T11:23:25;7.68;;;3.55;;
43363;SDS011;40636;52.424;-1.948;2023-07-31T11:25:52;6.03;;;3.00;;
43363;SDS011;40636;52.424;-1.948;2023-07-31T11:28:25;6.53;;;2.28;;
43363;SDS011;40636;52.424;-1.948;2023-07-31T11:30:52;5.25;;;3.03;;
43363;SDS011;40636;52.424;-1.948;2023-07-31T11:33:18;4.72;;;2.25;;
43363;SDS011;40636;52.424;-1.948;2023-07-31T11:35:46;4.90;;;2.42;;
43363;SDS011;40636;52.424;-1.948;2023-07-31T11:38:20;3.47;;;1.80;;
43363;SDS011;40636;52.424;-1.948;2023-07-31T11:40:52;7.38;;;2.13;;
43363;SDS011;40636;52.424;-1.948;2023-07-31T11:43:21;9.80;;;3.17;;
43363;SDS011;40636;52.424;-1.948;2023-07-31T11:45:48;7.78;;;2.58;;
43363;SDS011;40636;52.424;-1.948;2023-07-31T11:48:20;13.60;;;3.67;;
43363;SDS011;40636;52.424;-1.948;2023-07-31T11:50:49;6.97;;;3.08;;
43363;SDS011;40636;52.424;-1.948;2023-07-31T11:53:22;6.30;;;2.58;;
43363;SDS011;40636;52.424;-1.948;2023-07-31T11:55:55;11.45;;;2.67;;
43363;SDS011;40636;52.424;-1.948;2023-07-31T11:58:25;7.28;;;2.70;;
43363;SDS011;40636;52.424;-1.948;2023-07-31T12:00:53;9.55;;;2.85;;
43363;SDS011;40636;52.424;-1.948;2023-07-31T12:03:20;9.57;;;3.40;;
43363;SDS011;40636;52.424;-1.948;2023-07-31T12:05:47;23.67;;;4.70;;
43363;SDS011;40636;52.424;-1.948;2023-07-31T12:08:16;5.15;;;2.38;;
43363;SDS011;40636;52.424;-1.948;2023-07-31T12:10:47;8.00;;;2.85;;
43363;SDS011;40636;52.424;-1.948;2023-07-31T12:13:23;7.28;;;3.45;;
43363;SDS011;40636;52.424;-1.948;2023-07-31T12:15:56;5.32;;;2.25;;
43363;SDS011;40636;52.424;-1.948;2023-07-31T12:18:25;5.72;;;2.85;;
43363;SDS011;40636;52.424;-1.948;2023-07-31T12:20:59;7.43;;;2.25;;
43363;SDS011;40636;52.424;-1.948;2023-07-31T12:23:30;5.97;;;2.35;;
43363;SDS011;40636;52.424;-1.948;2023-07-31T12:28:38;7.93;;;2.63;;
43363;SDS011;40636;52.424;-1.948;2023-07-31T12:31:09;11.48;;;3.78;;
43363;SDS011;40636;52.424;-1.948;2023-07-31T12:33:48;9.90;;;2.80;;
43363;SDS011;40636;52.424;-1.948;2023-07-31T12:36:18;8.70;;;2.40;;
43363;SDS011;40636;52.424;-1.948;2023-07-31T12:38:48;6.82;;;2.72;;
43363;SDS011;40636;52.424;-1.948;2023-07-31T12:41:16;5.03;;;3.33;;
43363;SDS011;40636;52.424;-1.948;2023-07-31T12:43:43;6.63;;;2.28;;
43363;SDS011;40636;52.424;-1.948;2023-07-31T12:46:12;8.18;;;3.05;;
43363;SDS011;40636;52.424;-1.948;2023-07-31T12:48:40;9.68;;;2.72;;
43363;SDS011;40636;52.424;-1.948;2023-07-31T12:51:06;6.30;;;2.42;;
43363;SDS011;40636;52.424;-1.948;2023-07-31T12:53:34;10.18;;;2.67;;
43363;SDS011;40636;52.424;-1.948;2023-07-31T12:56:02;5.00;;;2.67;;
43363;SDS011;40636;52.424;-1.948;2023-07-31T12:58:29;9.68;;;3.08;;
43363;SDS011;40636;52.424;-1.948;2023-07-31T13:00:56;7.20;;;3.22;;
43363;SDS011;40636;52.424;-1.948;2023-07-31T13:03:22;10.18;;;3.20;;
43363;SDS011;40636;52.424;-1.948;2023-07-31T13:05:49;7.50;;;2.55;;
43363;SDS011;40636;52.424;-1.948;2023-07-31T13:08:16;7.57;;;2.80;;
43363;SDS011;40636;52.424;-1.948;2023-07-31T13:10:44;8.45;;;2.75;;
43363;SDS011;40636;52.424;-1.948;2023-07-31T13:13:11;8.85;;;2.97;;
43363;SDS011;40636;52.424;-1.948;2023-07-31T13:15:38;5.95;;;3.03;;
43363;SDS011;40636;52.424;-1.948;2023-07-31T13:18:05;5.00;;;3.13;;
43363;SDS011;40636;52.424;-1.948;2023-07-31T13:20:33;11.07;;;2.85;;
43363;SDS011;40636;52.424;-1.948;2023-07-31T13:23:00;6.65;;;3.22;;
43363;SDS011;40636;52.424;-1.948;2023-07-31T13:25:26;10.85;;;3.38;;
43363;SDS011;40636;52.424;-1.948;2023-07-31T13:27:54;8.25;;;3.08;;
43363;SDS011;40636;52.424;-1.948;2023-07-31T13:30:21;10.82;;;3.47;;
43363;SDS011;40636;52.424;-1.948;2023-07-31T13:32:48;8.23;;;3.20;;
43363;SDS011;40636;52.424;-1.948;2023-07-31T13:35:15;9.98;;;3.53;;
43363;SDS011;40636;52.424;-1.948;2023-07-31T13:37:42;6.78;;;2.90;;
43363;SDS011;40636;52.424;-1.948;2023-07-31T13:40:09;9.00;;;3.00;;
43363;SDS011;40636;52.424;-1.948;2023-07-31T13:42:36;7.75;;;4.32;;
43363;SDS011;40636;52.424;-1.948;2023-07-31T13:45:03;7.57;;;3.38;;
43363;SDS011;40636;52.424;-1.948;2023-07-31T13:47:33;8.32;;;3.05;;
43363;SDS011;40636;52.424;-1.948;2023-07-31T13:50:01;11.95;;;3.42;;
43363;SDS011;40636;52.424;-1.948;2023-07-31T13:52:28;6.20;;;3.00;;
43363;SDS011;40636;52.424;-1.948;2023-07-31T13:54:54;9.18;;;3.63;;
43363;SDS011;40636;52.424;-1.948;2023-07-31T13:57:21;12.75;;;4.20;;
43363;SDS011;40636;52.424;-1.948;2023-07-31T13:59:50;10.27;;;2.85;;
43363;SDS011;40636;52.424;-1.948;2023-07-31T14:02:17;6.97;;;2.78;;
43363;SDS011;40636;52.424;-1.948;2023-07-31T14:04:44;5.20;;;3.05;;
43363;SDS011;40636;52.424;-1.948;2023-07-31T14:07:11;7.28;;;3.38;;
43363;SDS011;40636;52.424;-1.948;2023-07-31T14:09:37;7.15;;;4.15;;
43363;SDS011;40636;52.424;-1.948;2023-07-31T14:12:04;4.22;;;2.83;;
43363;SDS011;40636;52.424;-1.948;2023-07-31T14:14:31;5.95;;;2.90;;
43363;SDS011;40636;52.424;-1.948;2023-07-31T14:17:01;8.68;;;3.38;;
43363;SDS011;40636;52.424;-1.948;2023-07-31T14:19:28;5.80;;;2.95;;
43363;SDS011;40636;52.424;-1.948;2023-07-31T14:21:55;3.95;;;2.60;;
43363;SDS011;40636;52.424;-1.948;2023-07-31T14:24:36;5.55;;;2.75;;
43363;SDS011;40636;52.424;-1.948;2023-07-31T14:27:03;7.53;;;3.72;;
43363;SDS011;40636;52.424;-1.948;2023-07-31T14:29:30;8.65;;;3.25;;
43363;SDS011;40636;52.424;-1.948;2023-07-31T14:31:57;8.13;;;3.58;;
43363;SDS011;40636;52.424;-1.948;2023-07-31T14:34:24;5.32;;;3.17;;
43363;SDS011;40636;52.424;-1.948;2023-07-31T14:36:51;7.97;;;3.70;;
43363;SDS011;40636;52.424;-1.948;2023-07-31T14:39:17;6.82;;;3.50;;
43363;SDS011;40636;52.424;-1.948;2023-07-31T14:41:44;9.35;;;3.67;;
43363;SDS011;40636;52.424;-1.948;2023-07-31T14:44:11;8.25;;;3.55;;
43363;SDS011;40636;52.424;-1.948;2023-07-31T14:46:37;8.10;;;2.63;;
43363;SDS011;40636;52.424;-1.948;2023-07-31T14:49:05;8.65;;;3.78;;
43363;SDS011;40636;52.424;-1.948;2023-07-31T14:51:32;7.35;;;3.05;;
43363;SDS011;40636;52.424;-1.948;2023-07-31T14:53:59;11.48;;;3.80;;
43363;SDS011;40636;52.424;-1.948;2023-07-31T14:56:25;8.02;;;3.83;;
43363;SDS011;40636;52.424;-1.948;2023-07-31T14:58:54;6.38;;;3.20;;
43363;SDS011;40636;52.424;-1.948;2023-07-31T15:01:21;8.57;;;3.50;;
43363;SDS011;40636;52.424;-1.948;2023-07-31T15:03:48;6.82;;;3.30;;
43363;SDS011;40636;52.424;-1.948;2023-07-31T15:06:15;7.95;;;3.20;;